Time;durP1;ratioP1;P1;durP2;ratioP2;P2;SDS_P1;SDS_P2;PMS_P1;PMS_P2;Temp;Humidity;BMP_temperature;BMP_pressure;BME280_temperature;BME280_humidity;BME280_pressure;Samples;Min_cycle;Max_cycle;Signal;HPM_P1;HPM_P2
2021/06/30 00:03:59;;;;;;;0.30;0.30;;;19.60;65.00;;;;;;10152680;28;20454;-63
2021/06/30 00:08:49;;;;;;;0.57;0.30;;;19.70;64.90;;;;;;10145933;28;20028;-63
2021/06/30 00:13:40;;;;;;;1.67;0.20;;;19.60;64.80;;;;;;10148171;28;20097;-63
2021/06/30 00:18:31;;;;;;;0.32;0.32;;;19.60;64.90;;;;;;10154681;28;20039;-63
2021/06/30 00:23:23;;;;;;;0.63;0.22;;;19.50;64.80;;;;;;10147388;28;20069;-62
2021/06/30 00:28:13;;;;;;;0.47;0.20;;;19.50;64.70;;;;;;10153615;28;20047;-63
2021/06/30 00:33:05;;;;;;;0.30;0.30;;;19.60;64.60;;;;;;10160528;28;20061;-63
2021/06/30 00:37:55;;;;;;;0.93;0.30;;;19.70;64.30;;;;;;10159137;28;20055;-62
2021/06/30 00:42:46;;;;;;;0.38;0.30;;;19.70;63.90;;;;;;10149592;28;20031;-63
2021/06/30 00:47:37;;;;;;;1.05;0.25;;;19.80;64.00;;;;;;10150450;28;20529;-62
2021/06/30 00:52:28;;;;;;;0.93;0.50;;;19.70;64.30;;;;;;10160365;28;20551;-63
2021/06/30 00:57:20;;;;;;;0.80;0.35;;;19.70;64.40;;;;;;10140651;28;20036;-63
2021/06/30 01:02:11;;;;;;;7.55;0.88;;;19.70;64.50;;;;;;10156923;28;20044;-62
2021/06/30 01:07:03;;;;;;;1.40;0.30;;;19.70;64.70;;;;;;10148671;28;20026;-62
2021/06/30 01:11:53;;;;;;;0.40;0.30;;;19.50;65.10;;;;;;10156460;28;20251;-62
2021/06/30 01:16:44;;;;;;;0.30;0.30;;;19.60;65.60;;;;;;10146794;28;20036;-62
2021/06/30 01:21:35;;;;;;;0.35;0.30;;;19.60;65.80;;;;;;10154256;28;20100;-64
2021/06/30 01:26:25;;;;;;;0.20;0.20;;;19.20;66.90;;;;;;10153789;28;20089;-62
2021/06/30 01:31:16;;;;;;;0.35;0.22;;;18.70;68.30;;;;;;10134085;28;20028;-63
2021/06/30 01:36:07;;;;;;;0.60;0.30;;;18.50;69.10;;;;;;10151077;28;20116;-61
2021/06/30 01:40:58;;;;;;;1.17;0.30;;;18.30;69.70;;;;;;10155433;28;20105;-62
2021/06/30 01:45:53;;;;;;;0.20;0.20;;;18.20;70.00;;;;;;10150469;28;20028;-63
2021/06/30 01:50:47;;;;;;;0.43;0.30;;;18.10;70.70;;;;;;10153224;28;20036;-62
2021/06/30 01:55:38;;;;;;;1.10;0.50;;;18.10;71.00;;;;;;10168083;28;20358;-62
2021/06/30 02:00:29;;;;;;;0.32;0.30;;;18.20;71.10;;;;;;10164933;28;20301;-62
2021/06/30 02:05:22;;;;;;;0.75;0.35;;;18.10;71.80;;;;;;10160678;28;20845;-61
2021/06/30 02:10:13;;;;;;;0.40;0.30;;;18.00;72.20;;;;;;10140585;28;20520;-62
2021/06/30 02:15:07;;;;;;;0.28;0.28;;;17.90;72.50;;;;;;10158317;28;20040;-61
2021/06/30 02:19:58;;;;;;;0.43;0.40;;;17.90;72.80;;;;;;10164979;28;20160;-61
2021/06/30 02:24:49;;;;;;;0.30;0.28;;;18.00;73.00;;;;;;10162748;28;20460;-61
2021/06/30 02:29:39;;;;;;;0.38;0.30;;;17.90;73.60;;;;;;10159833;28;20135;-62
2021/06/30 02:34:30;;;;;;;0.60;0.40;;;17.70;73.90;;;;;;10156300;28;20055;-61
2021/06/30 02:39:21;;;;;;;1.52;0.60;;;17.70;74.50;;;;;;10161466;28;20036;-61
2021/06/30 02:44:11;;;;;;;1.17;0.50;;;17.60;74.70;;;;;;10165635;28;20033;-60
2021/06/30 02:49:03;;;;;;;0.20;0.20;;;17.50;75.00;;;;;;10161546;28;20024;-59
2021/06/30 02:53:53;;;;;;;1.20;0.30;;;17.40;75.50;;;;;;10157146;28;20111;-60
2021/06/30 02:58:44;;;;;;;1.30;0.75;;;17.30;75.80;;;;;;10153011;28;20416;-62
2021/06/30 03:03:35;;;;;;;0.40;0.40;;;17.30;75.90;;;;;;10160677;28;20531;-61
2021/06/30 03:08:25;;;;;;;0.47;0.40;;;17.40;75.70;;;;;;10162609;28;20219;-61
2021/06/30 03:13:16;;;;;;;1.38;0.55;;;17.40;75.70;;;;;;10159845;28;20103;-61
2021/06/30 03:18:06;;;;;;;0.35;0.35;;;17.50;75.80;;;;;;10159177;28;20113;-61
2021/06/30 03:22:57;;;;;;;0.30;0.20;;;17.50;76.10;;;;;;10155746;28;20041;-61
2021/06/30 03:27:48;;;;;;;2.45;0.55;;;17.50;76.20;;;;;;10160245;28;20351;-62
2021/06/30 03:32:39;;;;;;;1.25;0.50;;;17.60;76.10;;;;;;10158543;28;20575;-59
2021/06/30 03:37:29;;;;;;;1.75;0.50;;;17.70;76.00;;;;;;10156545;28;20444;-60
2021/06/30 03:42:20;;;;;;;0.80;0.52;;;17.70;76.80;;;;;;10154580;28;20036;-60
2021/06/30 03:47:11;;;;;;;1.10;0.50;;;17.60;76.50;;;;;;10155606;28;20085;-60
2021/06/30 03:52:02;;;;;;;2.58;0.60;;;17.70;76.70;;;;;;10162770;28;20074;-60
2021/06/30 03:56:53;;;;;;;1.70;0.95;;;17.50;76.80;;;;;;10157150;28;20048;-61
2021/06/30 04:01:44;;;;;;;0.82;0.60;;;17.50;77.40;;;;;;10153460;28;20534;-61
2021/06/30 04:06:34;;;;;;;0.40;0.32;;;17.60;77.20;;;;;;10150336;28;20032;-61
2021/06/30 04:11:25;;;;;;;1.25;0.57;;;17.50;77.10;;;;;;10158550;28;20028;-62
2021/06/30 04:16:16;;;;;;;0.65;0.50;;;17.60;77.40;;;;;;10160655;28;20237;-61
2021/06/30 04:21:08;;;;;;;1.10;0.57;;;17.60;77.30;;;;;;10152979;28;20340;-60
2021/06/30 04:25:59;;;;;;;2.47;0.50;;;17.60;77.40;;;;;;10150849;28;20445;-61
2021/06/30 04:30:50;;;;;;;1.02;0.50;;;17.70;77.60;;;;;;10157190;28;20274;-60
2021/06/30 04:35:41;;;;;;;0.57;0.47;;;17.60;77.50;;;;;;10160799;28;20028;-61
2021/06/30 04:40:31;;;;;;;0.85;0.60;;;17.50;78.00;;;;;;10156752;28;20036;-60
2021/06/30 04:45:22;;;;;;;0.73;0.43;;;17.60;78.00;;;;;;10156238;28;20028;-59
2021/06/30 04:50:13;;;;;;;0.65;0.50;;;17.60;78.10;;;;;;10146669;28;20040;-60
2021/06/30 04:55:06;;;;;;;0.43;0.40;;;17.70;77.80;;;;;;10156914;28;20113;-60
2021/06/30 04:59:57;;;;;;;0.50;0.50;;;17.60;77.80;;;;;;10155435;28;20127;-59
2021/06/30 05:04:47;;;;;;;1.65;0.68;;;17.70;77.70;;;;;;10153810;28;20639;-60
2021/06/30 05:09:38;;;;;;;1.77;0.88;;;17.60;78.10;;;;;;10135691;28;20090;-59
2021/06/30 05:14:29;;;;;;;0.50;0.40;;;17.60;78.20;;;;;;10145489;28;20188;-61
2021/06/30 05:19:19;;;;;;;0.73;0.40;;;17.70;78.20;;;;;;10159573;28;20391;-63
2021/06/30 05:24:10;;;;;;;0.70;0.50;;;17.80;77.90;;;;;;10156500;28;20227;-59
2021/06/30 05:29:01;;;;;;;1.35;0.60;;;17.70;78.10;;;;;;10163635;28;20711;-62
2021/06/30 05:33:52;;;;;;;1.58;0.70;;;17.70;78.20;;;;;;10163097;28;20040;-59
2021/06/30 05:38:42;;;;;;;1.63;0.65;;;17.70;78.00;;;;;;10163965;28;20282;-58
2021/06/30 05:43:36;;;;;;;0.40;0.40;;;17.70;78.20;;;;;;10168204;28;20471;-59
2021/06/30 05:48:27;;;;;;;0.50;0.40;;;17.70;78.00;;;;;;10163556;28;20221;-60
2021/06/30 05:53:17;;;;;;;1.13;0.70;;;17.80;77.90;;;;;;10160841;28;20156;-60
2021/06/30 05:58:08;;;;;;;1.23;0.50;;;17.90;77.90;;;;;;10158818;28;20051;-60
2021/06/30 06:02:59;;;;;;;1.60;0.57;;;18.00;77.90;;;;;;10167846;28;20033;-60
2021/06/30 06:07:49;;;;;;;2.78;0.73;;;18.00;78.00;;;;;;10161087;28;20036;-60
2021/06/30 06:12:40;;;;;;;1.00;0.68;;;17.90;78.40;;;;;;10162658;28;20025;-59
2021/06/30 06:17:31;;;;;;;25.40;3.97;;;17.70;78.60;;;;;;10156821;28;20113;-60
2021/06/30 06:22:21;;;;;;;2.92;0.80;;;17.60;78.70;;;;;;10164312;28;20110;-58
2021/06/30 06:27:12;;;;;;;12.77;1.88;;;17.60;79.00;;;;;;10158541;28;20461;-58
2021/06/30 06:32:03;;;;;;;2.03;0.90;;;17.80;78.70;;;;;;10162960;28;20054;-59
2021/06/30 06:36:55;;;;;;;2.92;0.70;;;17.70;79.10;;;;;;10154827;28;20047;-59
2021/06/30 06:41:47;;;;;;;1.95;0.80;;;17.80;78.80;;;;;;10152454;28;20032;-59
2021/06/30 06:46:39;;;;;;;1.20;0.75;;;17.70;78.90;;;;;;10157154;28;20066;-62
2021/06/30 06:51:30;;;;;;;1.02;0.32;;;17.60;79.00;;;;;;10161908;28;20156;-59
2021/06/30 06:56:25;;;;;;;2.17;0.80;;;17.50;79.40;;;;;;10157131;28;20565;-59
2021/06/30 07:01:16;;;;;;;0.60;0.60;;;17.30;79.70;;;;;;10136632;28;20446;-59
2021/06/30 07:06:06;;;;;;;2.00;0.88;;;17.40;79.70;;;;;;10154592;28;20313;-60
2021/06/30 07:10:57;;;;;;;1.13;0.70;;;17.40;79.40;;;;;;10162879;28;20040;-60
2021/06/30 07:15:48;;;;;;;2.05;0.50;;;17.30;79.70;;;;;;10158222;28;20127;-58
2021/06/30 07:20:38;;;;;;;3.50;1.75;;;17.30;79.90;;;;;;10155243;28;20035;-59
2021/06/30 07:25:29;;;;;;;6.78;1.13;;;17.30;80.00;;;;;;10150359;28;20040;-59
2021/06/30 07:30:20;;;;;;;2.58;0.65;;;17.40;80.00;;;;;;10164603;28;20414;-58
2021/06/30 07:35:10;;;;;;;3.97;0.70;;;17.40;80.10;;;;;;10161332;28;20577;-60
2021/06/30 07:40:02;;;;;;;5.93;1.38;;;17.30;80.10;;;;;;10155154;28;20040;-58
2021/06/30 07:44:53;;;;;;;5.63;2.20;;;17.40;80.20;;;;;;10156546;28;20154;-58
2021/06/30 07:49:43;;;;;;;1.65;1.10;;;17.50;80.00;;;;;;10156941;28;20152;-59
2021/06/30 07:54:34;;;;;;;2.65;2.30;;;17.80;79.60;;;;;;10161460;28;20020;-58
2021/06/30 07:59:25;;;;;;;6.18;2.83;;;18.00;79.30;;;;;;10156235;28;20302;-58
2021/06/30 08:04:16;;;;;;;1.65;1.52;;;18.00;79.60;;;;;;10154017;28;20469;-59
2021/06/30 08:09:07;;;;;;;1.50;1.10;;;18.30;79.20;;;;;;10134919;28;20047;-58
2021/06/30 08:13:57;;;;;;;1.35;0.95;;;18.60;78.60;;;;;;10163858;28;20126;-58
2021/06/30 08:18:49;;;;;;;3.95;0.93;;;18.40;79.20;;;;;;10160514;28;20153;-57
2021/06/30 08:23:39;;;;;;;0.90;0.63;;;18.70;78.90;;;;;;10155908;28;20024;-58
2021/06/30 08:28:31;;;;;;;2.90;0.80;;;18.80;78.70;;;;;;10154124;28;20058;-57
2021/06/30 08:33:22;;;;;;;1.52;0.88;;;18.90;78.70;;;;;;10154614;28;20554;-59
2021/06/30 08:38:13;;;;;;;1.15;0.73;;;18.90;78.50;;;;;;10158757;28;20155;-58
2021/06/30 08:43:07;;;;;;;3.63;2.60;;;19.10;78.60;;;;;;10154668;28;20056;-58
2021/06/30 08:47:58;;;;;;;1.00;0.82;;;19.10;78.40;;;;;;10153183;28;20035;-58
2021/06/30 08:52:51;;;;;;;1.38;0.73;;;19.00;78.40;;;;;;10151177;28;20040;-58
2021/06/30 08:57:45;;;;;;;4.07;0.90;;;19.10;78.50;;;;;;10157722;28;20036;-57
2021/06/30 09:02:37;;;;;;;1.30;0.88;;;18.90;78.50;;;;;;10158481;28;20558;-58
2021/06/30 09:07:27;;;;;;;7.10;1.70;;;18.60;78.70;;;;;;10152908;28;20040;-58
2021/06/30 09:12:38;;;;;;;3.53;1.80;;;18.60;79.00;;;;;;10148777;28;20519;-58
2021/06/30 09:17:29;;;;;;;2.00;0.75;;;18.50;78.90;;;;;;10157189;28;20295;-58
2021/06/30 09:22:23;;;;;;;0.95;0.80;;;18.50;78.80;;;;;;10160632;28;20336;-57
2021/06/30 09:27:15;;;;;;;4.00;1.00;;;18.60;78.50;;;;;;10156576;28;20098;-59
2021/06/30 09:32:19;;;;;;;2.60;0.90;;;18.90;78.50;;;;;;10155288;28;20050;-59
2021/06/30 09:37:12;;;;;;;1.33;0.85;;;18.80;78.50;;;;;;10155144;28;20514;-58
2021/06/30 09:42:13;;;;;;;2.90;1.25;;;18.90;78.50;;;;;;10160295;28;20107;-58
2021/06/30 09:47:05;;;;;;;0.95;0.85;;;19.40;77.70;;;;;;10156207;28;20020;-63
2021/06/30 09:52:12;;;;;;;1.25;0.73;;;19.50;77.70;;;;;;10132430;28;20054;-59
2021/06/30 09:57:23;;;;;;;1.85;0.98;;;19.80;77.60;;;;;;10149479;28;20574;-58
2021/06/30 10:02:18;;;;;;;1.27;0.65;;;19.80;77.20;;;;;;10158426;28;20058;-58
2021/06/30 10:07:23;;;;;;;2.78;1.33;;;19.90;77.20;;;;;;10156008;28;20067;-57
2021/06/30 10:12:16;;;;;;;1.67;0.93;;;20.20;76.70;;;;;;10154341;28;20546;-59
2021/06/30 10:17:09;;;;;;;1.10;0.70;;;20.40;76.00;;;;;;10155900;28;20548;-59
2021/06/30 10:22:00;;;;;;;1.52;0.77;;;20.60;75.40;;;;;;10158253;28;20039;-57
2021/06/30 10:26:51;;;;;;;3.65;0.60;;;20.90;75.30;;;;;;10164755;28;20118;-59
2021/06/30 10:31:45;;;;;;;1.85;0.60;;;20.90;74.40;;;;;;10159830;28;20016;-58
2021/06/30 10:36:53;;;;;;;2.90;1.20;;;21.00;74.20;;;;;;10158182;28;20040;-57
2021/06/30 10:41:51;;;;;;;1.83;0.98;;;21.10;73.30;;;;;;10163854;28;20035;-58
2021/06/30 10:46:43;;;;;;;1.20;0.77;;;21.20;73.00;;;;;;10163445;28;20122;-58
2021/06/30 10:51:40;;;;;;;1.02;0.68;;;21.20;72.50;;;;;;10128330;28;20054;-59
2021/06/30 10:56:32;;;;;;;0.98;0.63;;;21.10;72.40;;;;;;10139158;28;20286;-58
2021/06/30 11:01:23;;;;;;;1.88;1.10;;;20.90;72.10;;;;;;10155470;28;20089;-58
2021/06/30 11:06:24;;;;;;;0.85;0.63;;;20.60;72.00;;;;;;10154710;28;20126;-58
2021/06/30 11:11:18;;;;;;;1.23;0.85;;;20.80;71.40;;;;;;10162111;28;20591;-58
2021/06/30 11:16:08;;;;;;;3.60;0.85;;;20.90;70.80;;;;;;10157659;28;20095;-58
2021/06/30 11:21:03;;;;;;;1.05;0.93;;;20.70;70.30;;;;;;10153146;28;20396;-57
2021/06/30 11:26:15;;;;;;;1.60;1.13;;;20.50;70.30;;;;;;10165190;28;20043;-59
2021/06/30 11:31:29;;;;;;;0.57;0.57;;;20.60;70.10;;;;;;10161089;28;20104;-59
2021/06/30 11:36:19;;;;;;;1.98;0.80;;;20.30;68.90;;;;;;10149464;28;20232;-57
2021/06/30 11:41:13;;;;;;;3.00;1.30;;;20.40;69.40;;;;;;10149828;28;20398;-58
2021/06/30 11:46:06;;;;;;;1.52;0.65;;;20.90;68.40;;;;;;10148769;28;20040;-59
2021/06/30 11:51:01;;;;;;;3.55;1.73;;;21.10;68.20;;;;;;10161558;28;20025;-58
2021/06/30 11:55:51;;;;;;;2.13;1.08;;;21.20;68.10;;;;;;10156641;28;20545;-57
2021/06/30 12:00:43;;;;;;;3.10;0.77;;;21.20;68.00;;;;;;10135465;28;20050;-57
2021/06/30 12:05:37;;;;;;;1.60;0.50;;;21.20;68.00;;;;;;10149734;28;20122;-58
2021/06/30 12:10:30;;;;;;;1.07;0.60;;;21.00;68.00;;;;;;10164449;28;20048;-61
2021/06/30 12:15:21;;;;;;;1.08;0.70;;;20.90;67.70;;;;;;10160098;28;20565;-58
2021/06/30 12:20:13;;;;;;;1.77;0.75;;;21.30;67.00;;;;;;10158217;28;20059;-58
2021/06/30 12:25:18;;;;;;;1.17;0.90;;;21.20;66.90;;;;;;10151087;28;20036;-58
2021/06/30 12:30:16;;;;;;;1.10;1.00;;;21.40;66.50;;;;;;10156734;28;20120;-57
2021/06/30 12:35:07;;;;;;;1.10;0.60;;;21.40;66.20;;;;;;10158225;28;20023;-57
2021/06/30 12:40:04;;;;;;;0.57;0.55;;;21.30;66.10;;;;;;10153698;28;20047;-61
2021/06/30 12:44:58;;;;;;;0.60;0.57;;;21.40;66.50;;;;;;10151519;28;20251;-59
2021/06/30 12:50:07;;;;;;;0.30;0.30;;;21.30;66.70;;;;;;10144879;28;20059;-58
2021/06/30 12:55:08;;;;;;;2.05;0.68;;;21.30;67.00;;;;;;10157587;28;20036;-58
2021/06/30 13:00:16;;;;;;;0.40;0.40;;;21.30;67.10;;;;;;10159605;28;20541;-59
2021/06/30 13:05:21;;;;;;;0.50;0.50;;;21.30;67.10;;;;;;10141043;28;20495;-58
2021/06/30 13:10:17;;;;;;;1.15;0.55;;;20.90;67.90;;;;;;10148273;28;20059;-59
2021/06/30 13:15:24;;;;;;;1.08;0.50;;;21.00;67.80;;;;;;10136864;28;20423;-57
2021/06/30 13:20:15;;;;;;;0.63;0.50;;;20.70;68.40;;;;;;10142894;28;20434;-60
2021/06/30 13:25:23;;;;;;;0.57;0.57;;;20.20;69.50;;;;;;10158067;28;20028;-57
2021/06/30 13:35:39;;;;;;;0.30;0.30;;;20.20;69.90;;;;;;10154712;28;20278;-57
2021/06/30 13:40:36;;;;;;;0.35;0.35;;;20.10;70.40;;;;;;10134751;28;20048;-57
2021/06/30 13:45:37;;;;;;;0.47;0.45;;;20.00;70.50;;;;;;10158292;28;20028;-58
2021/06/30 13:50:28;;;;;;;0.43;0.30;;;19.60;71.00;;;;;;10161425;28;20119;-58
2021/06/30 13:55:24;;;;;;;2.60;0.40;;;19.40;71.50;;;;;;10157078;28;20030;-57
2021/06/30 14:00:15;;;;;;;0.28;0.25;;;19.20;72.00;;;;;;10166919;28;20506;-58
2021/06/30 14:05:06;;;;;;;0.63;0.40;;;19.10;72.70;;;;;;10163652;28;20032;-58
2021/06/30 14:09:57;;;;;;;0.73;0.40;;;19.20;73.20;;;;;;10147209;28;20596;-58
2021/06/30 14:14:48;;;;;;;0.47;0.40;;;19.30;73.00;;;;;;10156569;28;20447;-58
2021/06/30 14:19:39;;;;;;;0.77;0.40;;;19.20;73.30;;;;;;10158780;28;20032;-58
2021/06/30 14:24:29;;;;;;;1.17;0.57;;;19.30;73.50;;;;;;10165057;28;20271;-54
2021/06/30 14:29:20;;;;;;;0.35;0.30;;;19.50;73.50;;;;;;10162316;28;20161;-57
2021/06/30 14:34:11;;;;;;;1.00;0.47;;;19.60;73.40;;;;;;10159712;28;20040;-60
2021/06/30 14:39:02;;;;;;;0.52;0.43;;;19.50;73.80;;;;;;10159417;28;20043;-57
2021/06/30 14:43:52;;;;;;;0.80;0.45;;;19.50;74.30;;;;;;10166100;28;20569;-59
2021/06/30 14:48:43;;;;;;;0.55;0.40;;;19.40;74.50;;;;;;10162793;28;20028;-58
2021/06/30 14:53:35;;;;;;;0.57;0.43;;;19.40;74.70;;;;;;10156888;28;20024;-58
2021/06/30 14:58:29;;;;;;;1.52;0.50;;;19.40;74.80;;;;;;10155326;28;20055;-57
2021/06/30 15:03:19;;;;;;;1.80;0.70;;;19.50;74.70;;;;;;10158681;28;20080;-56
2021/06/30 15:08:10;;;;;;;1.00;0.90;;;19.50;75.00;;;;;;10151950;28;20515;-57
2021/06/30 15:13:01;;;;;;;0.68;0.63;;;19.40;75.50;;;;;;10158348;28;20024;-58
2021/06/30 15:17:52;;;;;;;0.40;0.40;;;19.40;75.80;;;;;;10155128;28;20678;-58
2021/06/30 15:22:42;;;;;;;0.98;0.70;;;19.30;75.80;;;;;;10154255;28;20115;-57
2021/06/30 15:27:35;;;;;;;1.00;0.70;;;19.30;76.10;;;;;;10165250;28;20103;-55
2021/06/30 15:32:25;;;;;;;1.13;0.60;;;19.20;76.70;;;;;;10153384;28;20434;-58
2021/06/30 15:37:16;;;;;;;1.15;0.65;;;19.00;77.30;;;;;;10139346;28;20071;-60
2021/06/30 15:42:07;;;;;;;1.25;0.57;;;19.10;77.00;;;;;;10152077;28;20032;-58
2021/06/30 15:46:58;;;;;;;0.60;0.47;;;19.10;77.30;;;;;;10150779;28;20081;-59
2021/06/30 15:51:50;;;;;;;0.73;0.60;;;19.30;77.10;;;;;;10162283;28;20029;-57
2021/06/30 15:56:42;;;;;;;1.80;0.73;;;19.20;77.50;;;;;;10140828;28;20120;-57
2021/06/30 16:01:34;;;;;;;2.72;1.00;;;19.20;78.00;;;;;;10152871;28;20045;-58
2021/06/30 16:06:25;;;;;;;1.20;0.70;;;19.10;78.80;;;;;;10147686;28;20032;-57
2021/06/30 16:11:15;;;;;;;0.60;0.50;;;19.00;78.80;;;;;;10162360;28;20379;-57
2021/06/30 16:16:06;;;;;;;0.52;0.40;;;18.40;79.50;;;;;;10144846;28;20032;-58
2021/06/30 16:20:57;;;;;;;0.65;0.50;;;17.80;80.30;;;;;;10158921;28;20036;-58
2021/06/30 16:25:49;;;;;;;0.80;0.55;;;17.10;80.70;;;;;;10142037;28;20029;-58
2021/06/30 16:30:42;;;;;;;1.67;0.70;;;16.60;81.60;;;;;;10154290;28;20216;-58
2021/06/30 16:35:32;;;;;;;1.70;0.55;;;16.40;81.20;;;;;;10160367;28;20441;-59
2021/06/30 16:40:23;;;;;;;1.10;0.77;;;16.50;81.00;;;;;;10157206;28;20040;-56
2021/06/30 16:45:14;;;;;;;0.63;0.57;;;16.50;80.60;;;;;;10157819;28;20028;-56
2021/06/30 16:50:06;;;;;;;0.90;0.65;;;16.20;81.10;;;;;;10155293;28;20093;-57
2021/06/30 16:54:57;;;;;;;0.57;0.55;;;16.20;81.10;;;;;;10162043;28;20073;-58
2021/06/30 16:59:47;;;;;;;0.90;0.70;;;16.20;81.00;;;;;;10158282;28;20112;-56
2021/06/30 17:04:38;;;;;;;1.08;0.80;;;16.40;80.80;;;;;;10154792;28;20111;-57
2021/06/30 17:09:29;;;;;;;1.98;0.80;;;16.40;80.70;;;;;;10143743;28;20028;-58
2021/06/30 17:14:19;;;;;;;2.25;0.80;;;16.50;80.70;;;;;;10153883;28;20024;-59
2021/06/30 17:19:10;;;;;;;1.17;1.02;;;16.50;80.80;;;;;;10161049;28;20036;-58
2021/06/30 17:24:01;;;;;;;1.00;0.75;;;16.50;80.80;;;;;;10164782;28;20248;-58
2021/06/30 17:28:53;;;;;;;1.27;0.77;;;16.90;80.50;;;;;;10165436;28;20571;-58
2021/06/30 17:33:44;;;;;;;1.15;0.73;;;16.80;80.60;;;;;;10164113;28;20041;-59
2021/06/30 17:38:35;;;;;;;0.95;0.85;;;16.70;80.60;;;;;;10168877;28;20048;-58
2021/06/30 17:43:27;;;;;;;1.20;1.05;;;16.70;80.80;;;;;;10172210;28;20448;-59
2021/06/30 17:48:18;;;;;;;1.50;1.05;;;16.70;80.60;;;;;;10169022;28;20039;-61
2021/06/30 17:53:09;;;;;;;2.47;1.08;;;16.60;80.60;;;;;;10165811;28;20041;-59
2021/06/30 17:58:00;;;;;;;4.13;1.08;;;16.60;80.70;;;;;;10163825;28;20316;-61
2021/06/30 18:02:50;;;;;;;3.97;1.10;;;16.60;80.40;;;;;;10173610;28;20028;-60
2021/06/30 18:07:42;;;;;;;3.53;1.80;;;16.50;80.50;;;;;;10172558;28;20401;-60
2021/06/30 18:12:33;;;;;;;4.05;1.90;;;16.60;80.40;;;;;;10164665;28;20498;-61
2021/06/30 18:17:24;;;;;;;6.18;2.03;;;16.60;80.30;;;;;;10160835;28;20054;-59
2021/06/30 18:22:15;;;;;;;2.83;1.45;;;16.50;80.30;;;;;;10155133;28;20085;-62
2021/06/30 18:27:06;;;;;;;5.57;1.23;;;16.50;80.30;;;;;;10170032;28;20039;-59
2021/06/30 18:31:57;;;;;;;2.63;1.05;;;16.40;80.60;;;;;;10163301;28;20044;-61
2021/06/30 18:36:48;;;;;;;3.28;1.45;;;16.50;80.40;;;;;;10161973;28;20060;-60
2021/06/30 18:41:38;;;;;;;3.35;2.42;;;16.50;80.30;;;;;;10139501;28;20032;-62
2021/06/30 18:46:29;;;;;;;1.80;1.20;;;16.50;80.40;;;;;;10166179;28;20040;-62
2021/06/30 18:51:20;;;;;;;1.35;0.82;;;16.60;80.10;;;;;;10159619;28;20028;-60
2021/06/30 18:56:10;;;;;;;3.42;1.40;;;16.40;80.40;;;;;;10154776;28;20033;-59
2021/06/30 19:01:01;;;;;;;3.70;1.33;;;16.50;80.70;;;;;;10150589;28;20043;-59
2021/06/30 19:05:57;;;;;;;2.83;1.55;;;16.60;80.50;;;;;;10165891;28;20064;-60
2021/06/30 19:10:48;;;;;;;2.55;1.10;;;16.80;80.20;;;;;;10161077;28;20058;-60
2021/06/30 19:15:45;;;;;;;3.35;1.35;;;16.80;80.30;;;;;;10139970;28;20735;-60
2021/06/30 19:20:35;;;;;;;2.65;1.35;;;16.60;80.30;;;;;;10152942;28;20044;-60
2021/06/30 19:25:26;;;;;;;3.03;1.73;;;16.60;80.60;;;;;;10155943;28;20407;-60
2021/06/30 19:30:17;;;;;;;2.40;1.38;;;16.50;80.90;;;;;;10155195;28;20834;-59
2021/06/30 19:35:09;;;;;;;1.92;1.27;;;16.50;81.10;;;;;;10159072;28;20064;-59
2021/06/30 19:40:03;;;;;;;2.20;1.17;;;16.40;81.50;;;;;;10157254;28;20040;-59
2021/06/30 19:44:54;;;;;;;2.15;1.20;;;16.50;81.30;;;;;;10155927;28;20193;-60
2021/06/30 19:49:45;;;;;;;1.50;1.05;;;16.40;81.50;;;;;;10156413;28;20046;-59
2021/06/30 19:54:36;;;;;;;2.90;1.45;;;16.50;81.40;;;;;;10163166;28;20038;-59
2021/06/30 19:59:27;;;;;;;2.38;1.33;;;16.40;81.30;;;;;;10155185;28;20488;-58
2021/06/30 20:04:17;;;;;;;2.25;1.20;;;16.50;81.30;;;;;;10135393;28;20082;-58
2021/06/30 20:09:08;;;;;;;2.28;1.27;;;16.50;81.40;;;;;;10155749;28;20051;-59
2021/06/30 20:14:01;;;;;;;3.50;1.67;;;16.50;81.20;;;;;;10160351;28;20058;-60
2021/06/30 20:18:51;;;;;;;3.10;1.67;;;16.60;81.30;;;;;;10160885;28;20040;-57
2021/06/30 20:23:42;;;;;;;4.28;2.05;;;16.70;81.10;;;;;;10152580;28;20032;-58
2021/06/30 20:28:33;;;;;;;3.42;1.77;;;16.70;81.30;;;;;;10150587;28;20211;-63
2021/06/30 20:33:23;;;;;;;3.10;1.35;;;16.80;81.20;;;;;;10159443;28;20623;-58
2021/06/30 20:38:15;;;;;;;2.28;1.20;;;16.70;81.20;;;;;;10159859;28;20083;-59
2021/06/30 20:43:05;;;;;;;2.50;1.35;;;16.60;81.70;;;;;;10155836;28;20041;-59
2021/06/30 20:47:56;;;;;;;3.75;1.48;;;16.50;82.10;;;;;;10155234;28;20469;-56
2021/06/30 20:52:47;;;;;;;3.38;1.42;;;16.50;82.20;;;;;;10156578;28;20111;-58
2021/06/30 20:57:39;;;;;;;2.15;1.45;;;16.50;82.20;;;;;;10160734;28;20029;-59
2021/06/30 21:02:29;;;;;;;1.70;1.60;;;16.50;82.50;;;;;;10161985;28;20431;-59
2021/06/30 21:07:20;;;;;;;2.17;1.40;;;16.40;82.70;;;;;;10157449;28;20548;-59
2021/06/30 21:12:10;;;;;;;4.43;2.03;;;16.40;82.80;;;;;;10161814;28;20483;-60
2021/06/30 21:17:02;;;;;;;1.52;1.17;;;16.30;82.80;;;;;;10167382;28;20047;-55
2021/06/30 21:21:53;;;;;;;4.32;1.95;;;16.30;82.60;;;;;;10167130;28;20292;-58
2021/06/30 21:26:44;;;;;;;1.50;0.98;;;16.30;82.30;;;;;;10157528;28;20444;-59
2021/06/30 21:31:34;;;;;;;1.40;1.23;;;16.30;82.10;;;;;;10156203;28;20462;-59
2021/06/30 21:36:26;;;;;;;1.42;0.93;;;16.20;82.00;;;;;;10165451;28;20105;-57
2021/06/30 21:41:16;;;;;;;3.17;1.30;;;16.10;81.90;;;;;;10163443;28;20028;-56
2021/06/30 21:46:07;;;;;;;2.97;1.23;;;16.10;81.90;;;;;;10161666;28;20260;-59
2021/06/30 21:50:58;;;;;;;2.03;0.80;;;16.00;81.80;;;;;;10153129;28;20109;-58
2021/06/30 21:55:49;;;;;;;1.70;1.10;;;16.00;81.60;;;;;;10153110;28;20031;-59
2021/06/30 22:00:39;;;;;;;3.08;1.25;;;16.10;81.40;;;;;;10160934;28;20056;-58
2021/06/30 22:05:30;;;;;;;1.60;1.20;;;16.30;81.30;;;;;;10158342;28;20494;-59
2021/06/30 22:10:21;;;;;;;1.83;1.13;;;16.30;81.10;;;;;;10157804;28;20412;-59
2021/06/30 22:15:14;;;;;;;3.85;1.80;;;16.30;81.30;;;;;;10155434;28;20451;-59
2021/06/30 22:20:08;;;;;;;2.90;1.50;;;16.40;81.30;;;;;;10163705;28;20040;-58
2021/06/30 22:24:59;;;;;;;2.25;1.65;;;16.30;81.20;;;;;;10167154;28;20024;-59
2021/06/30 22:29:50;;;;;;;1.77;1.20;;;16.30;81.50;;;;;;10161751;28;20039;-59
2021/06/30 22:34:41;;;;;;;2.22;1.10;;;16.20;81.80;;;;;;10158239;28;20023;-59
2021/06/30 22:39:31;;;;;;;1.60;1.10;;;16.10;82.00;;;;;;10153005;28;20036;-58
2021/06/30 22:44:22;;;;;;;1.80;1.27;;;16.00;82.20;;;;;;10151880;28;20048;-55
2021/06/30 22:49:13;;;;;;;3.78;1.50;;;16.00;82.30;;;;;;10163987;28;20526;-58
2021/06/30 22:54:03;;;;;;;1.98;1.50;;;16.00;82.30;;;;;;10159475;28;20532;-56
2021/06/30 22:58:54;;;;;;;1.88;1.50;;;16.00;82.60;;;;;;10154648;28;20083;-55
2021/06/30 23:03:44;;;;;;;4.65;2.30;;;15.80;82.80;;;;;;10149967;28;20581;-58
2021/06/30 23:08:35;;;;;;;2.85;1.30;;;15.90;82.90;;;;;;10165297;28;20036;-59
2021/06/30 23:13:26;;;;;;;1.52;0.88;;;15.80;83.00;;;;;;10160220;28;20017;-58
2021/06/30 23:18:16;;;;;;;1.70;1.23;;;15.90;83.50;;;;;;10155990;28;20036;-60
2021/06/30 23:23:07;;;;;;;2.88;1.40;;;15.90;83.00;;;;;;10158674;28;20024;-59
2021/06/30 23:27:58;;;;;;;2.13;1.35;;;15.80;83.30;;;;;;10158083;28;20028;-59
2021/06/30 23:32:48;;;;;;;2.70;1.42;;;15.80;83.20;;;;;;10144540;28;20046;-59
2021/06/30 23:37:39;;;;;;;2.42;1.40;;;15.80;83.30;;;;;;10158405;28;20309;-59
2021/06/30 23:42:30;;;;;;;2.17;1.58;;;15.80;83.40;;;;;;10143822;28;20328;-57
2021/06/30 23:47:20;;;;;;;2.28;1.20;;;15.90;83.50;;;;;;10156560;28;20043;-58
2021/06/30 23:52:11;;;;;;;2.35;1.33;;;15.90;83.70;;;;;;10163313;28;20506;-56
2021/06/30 23:57:02;;;;;;;1.95;0.82;;;15.80;83.80;;;;;;10159511;28;20367;-58
